Time;durP1;ratioP1;P1;durP2;ratioP2;P2;SDS_P1;SDS_P2;PMS_P1;PMS_P2;Temp;Humidity;BMP_temperature;BMP_pressure;BME280_temperature;BME280_humidity;BME280_pressure;Samples;Min_cycle;Max_cycle;Signal;HPM_P1;HPM_P2
2023/03/24 00:00:20;;;;;;;16.65;9.60;;;;;;;12.27;52.04;99881.57;1757494;82;21660;-63
2023/03/24 00:02:50;;;;;;;16.95;9.03;;;;;;;12.29;52.00;99871.20;1757319;80;21051;-60
2023/03/24 00:05:21;;;;;;;17.57;9.73;;;;;;;12.31;51.72;99867.70;1757277;82;21067;-62
2023/03/24 00:07:52;;;;;;;15.43;8.73;;;;;;;12.33;51.46;99864.20;1757178;80;21003;-62
2023/03/24 00:10:23;;;;;;;15.13;9.00;;;;;;;12.36;51.46;99862.95;1757155;81;21463;-62
2023/03/24 00:12:52;;;;;;;15.05;9.30;;;;;;;12.37;51.48;99864.09;1757217;82;21059;-62
2023/03/24 00:15:23;;;;;;;16.97;9.75;;;;;;;12.39;51.35;99862.50;1757281;81;21028;-61
2023/03/24 00:17:54;;;;;;;15.72;9.65;;;;;;;12.39;51.15;99862.50;1757281;81;21060;-61
2023/03/24 00:20:25;;;;;;;17.62;9.43;;;;;;;12.40;51.13;99860.59;1757228;82;21031;-61
2023/03/24 00:22:57;;;;;;;16.85;10.20;;;;;;;12.40;51.25;99862.81;1757207;80;21055;-60
2023/03/24 00:25:35;;;;;;;15.72;9.53;;;;;;;12.38;51.12;99858.07;1757314;82;21028;-61
2023/03/24 00:28:04;;;;;;;17.02;9.88;;;;;;;12.38;50.99;99858.91;1757485;81;21424;-61
2023/03/24 00:30:34;;;;;;;16.77;9.68;;;;;;;12.36;51.11;99858.30;1757166;82;21024;-63
2023/03/24 00:33:04;;;;;;;16.30;9.73;;;;;;;12.36;51.24;99859.67;1757405;80;21020;-62
2023/03/24 00:35:34;;;;;;;16.32;10.03;;;;;;;12.34;51.18;99849.40;1757233;81;20987;-62
2023/03/24 00:38:04;;;;;;;19.48;10.40;;;;;;;12.34;51.22;99854.05;1757193;82;21432;-60
2023/03/24 00:40:33;;;;;;;14.60;9.28;;;;;;;12.32;51.25;99850.16;1748448;82;21490;-60
2023/03/24 00:43:03;;;;;;;15.90;10.05;;;;;;;12.30;51.28;99845.95;1744032;82;21024;-62
2023/03/24 00:45:33;;;;;;;16.60;10.43;;;;;;;12.31;51.29;99846.26;1744142;82;21045;-62
2023/03/24 00:48:05;;;;;;;16.52;10.38;;;;;;;12.30;51.41;99842.67;1733774;82;21047;-62
2023/03/24 00:50:34;;;;;;;16.73;10.08;;;;;;;12.30;51.42;99831.68;1744191;81;21475;-60
2023/03/24 00:53:05;;;;;;;17.77;10.18;;;;;;;12.29;51.44;99837.40;1744064;81;21031;-60
2023/03/24 00:55:36;;;;;;;16.00;9.78;;;;;;;12.28;51.46;99826.94;1743994;81;21005;-62
2023/03/24 00:58:05;;;;;;;15.70;9.13;;;;;;;12.27;51.46;99835.41;1743867;81;21048;-62
2023/03/24 01:00:41;;;;;;;15.35;9.35;;;;;;;12.26;51.49;99829.07;1744085;81;21397;-62
2023/03/24 01:03:08;;;;;;;15.85;9.05;;;;;;;12.27;51.49;99834.03;1744334;82;21048;-62
2023/03/24 01:05:41;;;;;;;13.83;8.63;;;;;;;12.26;51.34;99827.70;1744036;81;21090;-61
2023/03/24 01:08:10;;;;;;;15.45;8.93;;;;;;;12.26;51.40;99829.07;1744109;82;21032;-62
2023/03/24 01:10:59;;;;;;;15.80;9.60;;;;;;;12.25;51.44;99828.77;1744039;81;21060;-61
2023/03/24 01:13:17;;;;;;;15.88;9.70;;;;;;;12.26;51.46;99829.07;1738072;81;21013;-62
2023/03/24 01:15:46;;;;;;;17.48;9.23;;;;;;;12.24;51.45;99827.61;1744020;82;21032;-62
2023/03/24 01:18:16;;;;;;;17.07;9.55;;;;;;;12.22;51.36;99831.11;1744129;81;21549;-63
2023/03/24 01:20:46;;;;;;;18.15;10.05;;;;;;;12.21;51.36;99828.90;1744184;82;21048;-61
2023/03/24 01:23:22;;;;;;;16.57;9.33;;;;;;;12.18;51.44;99829.34;1743937;82;21036;-61
2023/03/24 01:25:52;;;;;;;16.97;9.35;;;;;;;12.17;51.59;99819.42;1744218;81;21527;-63
2023/03/24 01:28:27;;;;;;;16.05;9.30;;;;;;;12.15;51.80;99826.20;1743914;81;21024;-61
2023/03/24 01:30:56;;;;;;;15.10;9.48;;;;;;;12.12;51.84;99820.62;1743935;82;21036;-62
2023/03/24 01:33:25;;;;;;;16.32;9.98;;;;;;;12.10;51.92;99822.75;1744156;82;21016;-61
2023/03/24 01:35:55;;;;;;;15.43;9.48;;;;;;;12.08;52.07;99818.54;1744085;82;21016;-61
2023/03/24 01:38:24;;;;;;;16.93;10.38;;;;;;;12.06;52.14;99821.50;1743923;81;21083;-62
2023/03/24 01:40:54;;;;;;;16.25;9.90;;;;;;;12.04;52.24;99812.65;1752804;82;21478;-61
2023/03/24 01:43:32;;;;;;;18.40;10.18;;;;;;;12.01;52.38;99817.21;1757221;82;21007;-62
2023/03/24 01:46:06;;;;;;;15.60;9.50;;;;;;;11.97;52.49;99813.22;1760355;82;20994;-61
2023/03/24 01:48:44;;;;;;;14.93;9.38;;;;;;;11.94;52.54;99815.88;1744746;82;21031;-61
2023/03/24 01:51:33;;;;;;;14.83;8.95;;;;;;;11.91;52.66;99813.58;1760672;82;21031;-62
2023/03/24 01:54:18;;;;;;;16.75;9.80;;;;;;;11.91;52.73;99821.81;1759187;80;21047;-61
2023/03/24 01:56:53;;;;;;;16.23;9.33;;;;;;;11.89;52.82;99826.68;1755398;82;21035;-61
2023/03/24 01:59:26;;;;;;;16.35;9.65;;;;;;;11.87;52.95;99822.48;1757536;82;21062;-62
2023/03/24 02:02:02;;;;;;;16.70;9.53;;;;;;;11.86;53.00;99819.42;1755791;81;21006;-61
2023/03/24 02:04:37;;;;;;;20.30;10.63;;;;;;;11.84;53.12;99836.64;1756972;80;21012;-60
2023/03/24 02:07:21;;;;;;;16.90;10.15;;;;;;;11.82;53.30;99838.77;1740125;80;21039;-60
2023/03/24 02:09:51;;;;;;;14.87;9.03;;;;;;;11.80;53.44;99835.40;1757130;81;21067;-62
2023/03/24 02:12:21;;;;;;;18.50;11.00;;;;;;;11.77;53.55;99838.02;1757292;82;21028;-61
2023/03/24 02:14:52;;;;;;;20.12;10.78;;;;;;;11.74;53.73;99836.55;1757237;81;21074;-62
2023/03/24 02:17:29;;;;;;;18.73;10.38;;;;;;;11.69;53.96;99837.70;1757234;82;21043;-63
2023/03/24 02:20:44;;;;;;;18.30;11.00;;;;;;;11.65;54.14;99843.33;1757238;82;20983;-62
2023/03/24 02:23:43;;;;;;;17.95;11.03;;;;;;;11.61;54.34;99842.08;1757164;82;21047;-62
2023/03/24 02:26:40;;;;;;;17.60;10.82;;;;;;;11.56;54.58;99839.14;1757261;82;21029;-62
2023/03/24 02:30:05;;;;;;;19.02;11.05;;;;;;;11.54;54.76;99843.16;1757455;82;21075;-60
2023/03/24 02:33:08;;;;;;;23.50;11.25;;;;;;;11.51;54.92;99838.95;1740474;82;21047;-62
2023/03/24 02:36:23;;;;;;;19.82;11.20;;;;;;;11.47;55.03;99839.08;1757228;81;21070;-61
2023/03/24 02:39:39;;;;;;;20.05;11.18;;;;;;;11.44;55.23;99840.36;1757464;80;21011;-60
2023/03/24 02:42:17;;;;;;;15.20;10.03;;;;;;;11.41;55.35;99835.83;1757121;82;21023;-62
2023/03/24 02:45:10;;;;;;;18.45;10.60;;;;;;;11.38;55.47;99843.97;1757409;82;21021;-63
2023/03/24 02:48:12;;;;;;;17.23;10.58;;;;;;;11.37;55.60;99845.02;1757271;81;21046;-61
2023/03/24 02:51:05;;;;;;;16.80;9.95;;;;;;;11.36;55.74;99846.08;1757389;80;21051;-61
2023/03/24 02:54:00;;;;;;;17.95;10.88;;;;;;;11.34;55.80;99852.31;1757495;80;21007;-61
2023/03/24 02:56:44;;;;;;;16.30;9.98;;;;;;;11.33;55.89;99856.64;1740598;82;21055;-60
2023/03/24 02:59:23;;;;;;;15.30;9.78;;;;;;;11.32;55.96;99853.06;1753373;81;21110;-62
2023/03/24 03:02:22;;;;;;;17.30;10.30;;;;;;;11.32;55.98;99846.73;1740193;82;21032;-61
2023/03/24 03:05:02;;;;;;;18.07;10.50;;;;;;;11.31;56.06;99848.63;1756956;81;21067;-61
2023/03/24 03:07:32;;;;;;;16.27;10.32;;;;;;;11.35;56.12;99855.90;1757307;82;21039;-62
2023/03/24 03:10:24;;;;;;;19.15;10.58;;;;;;;11.34;56.12;99845.98;1757275;82;21051;-61
2023/03/24 03:12:56;;;;;;;20.92;10.78;;;;;;;11.36;56.13;99848.83;1757409;82;21015;-60
2023/03/24 03:15:31;;;;;;;16.73;10.13;;;;;;;11.35;56.09;99852.62;1757352;82;21008;-61
2023/03/24 03:18:06;;;;;;;18.27;10.93;;;;;;;11.36;56.17;99856.21;1757144;82;22448;-61
2023/03/24 03:20:41;;;;;;;16.50;10.18;;;;;;;11.34;56.17;99855.05;1740555;82;21063;-62
2023/03/24 03:23:13;;;;;;;18.80;10.80;;;;;;;11.34;56.20;99862.45;1757266;81;20995;-62
2023/03/24 03:25:49;;;;;;;16.30;10.05;;;;;;;11.32;56.29;99854.43;1757173;81;21090;-61
2023/03/24 03:28:22;;;;;;;18.35;10.05;;;;;;;11.32;56.40;99857.70;1757020;81;21051;-61
2023/03/24 03:30:57;;;;;;;17.60;10.28;;;;;;;11.31;56.43;99859.60;1757073;82;21007;-60
2023/03/24 03:33:37;;;;;;;16.52;10.53;;;;;;;11.29;56.48;99858.13;1757565;82;21051;-61
2023/03/24 03:36:26;;;;;;;17.92;10.23;;;;;;;11.27;56.60;99864.36;1757121;81;21059;-60
2023/03/24 03:39:29;;;;;;;23.55;10.25;;;;;;;11.26;56.68;99865.42;1746241;80;21059;-61
2023/03/24 03:42:00;;;;;;;14.87;10.08;;;;;;;11.24;56.79;99867.53;1745601;81;21059;-62
2023/03/24 03:44:31;;;;;;;18.92;9.98;;;;;;;11.25;56.84;99863.73;1733769;82;21718;-60
2023/03/24 03:47:00;;;;;;;18.77;11.70;;;;;;;11.25;56.90;99870.06;1733439;81;21020;-61
2023/03/24 03:49:31;;;;;;;16.52;10.38;;;;;;;11.26;56.97;99870.91;1743446;81;21082;-61
2023/03/24 03:52:02;;;;;;;18.37;10.45;;;;;;;11.26;57.03;99880.50;1743933;81;21469;-62
2023/03/24 03:54:33;;;;;;;18.85;10.18;;;;;;;11.26;57.06;99875.02;1744171;81;21051;-61
2023/03/24 03:57:02;;;;;;;17.80;10.40;;;;;;;11.27;57.11;99882.19;1744134;82;21028;-61
2023/03/24 03:59:49;;;;;;;19.73;10.70;;;;;;;11.25;57.16;99877.45;1744277;82;21012;-61
2023/03/24 04:02:48;;;;;;;18.65;10.95;;;;;;;11.22;57.23;99877.34;1743781;82;21758;-61
2023/03/24 04:05:44;;;;;;;18.80;10.65;;;;;;;11.24;57.31;99883.98;1733369;82;21056;-61
2023/03/24 04:08:43;;;;;;;17.42;9.95;;;;;;;11.25;57.44;99882.94;1743999;81;21008;-61
2023/03/24 04:11:29;;;;;;;17.75;10.08;;;;;;;11.25;57.56;99881.03;1743953;81;21477;-61
2023/03/24 04:14:41;;;;;;;18.42;11.08;;;;;;;11.25;57.68;99882.94;1743834;82;21697;-61
2023/03/24 04:17:29;;;;;;;17.32;10.58;;;;;;;11.25;57.79;99884.30;1742123;82;21036;-61
2023/03/24 04:20:11;;;;;;;18.45;10.23;;;;;;;11.28;57.80;99887.98;1743755;82;21067;-62
2023/03/24 04:23:08;;;;;;;19.70;10.40;;;;;;;11.28;57.77;99884.72;1743828;82;21866;-60
2023/03/24 04:25:57;;;;;;;20.05;10.20;;;;;;;11.28;57.76;99894.84;1744055;82;21460;-61
2023/03/24 04:28:41;;;;;;;23.85;12.10;;;;;;;11.26;57.98;99892.31;1743897;81;21102;-62
2023/03/24 04:31:23;;;;;;;19.85;11.85;;;;;;;11.27;58.27;99901.39;1744198;82;21443;-61
2023/03/24 04:34:04;;;;;;;18.87;11.55;;;;;;;11.25;58.40;99888.42;1744029;82;21008;-61
2023/03/24 04:36:42;;;;;;;22.37;11.73;;;;;;;11.25;58.54;99887.89;1733422;82;21016;-61
2023/03/24 04:39:33;;;;;;;20.75;11.50;;;;;;;11.25;58.56;99890.63;1744162;82;21448;-61
2023/03/24 04:42:07;;;;;;;16.93;11.05;;;;;;;11.27;58.52;99901.39;1753641;82;21046;-62
2023/03/24 04:44:37;;;;;;;17.87;10.65;;;;;;;11.28;58.54;99895.69;1757318;80;21035;-62
2023/03/24 04:47:25;;;;;;;17.85;10.32;;;;;;;11.30;58.50;99905.91;1707119;81;21023;-61
2023/03/24 04:50:09;;;;;;;19.12;10.08;;;;;;;11.31;58.49;99906.23;1742112;82;21068;-61
2023/03/24 04:52:40;;;;;;;15.38;9.80;;;;;;;11.32;58.48;99907.06;1757398;81;21432;-62
2023/03/24 04:55:23;;;;;;;16.97;10.35;;;;;;;11.34;58.62;99913.19;1757233;81;20995;-61
2023/03/24 04:57:52;;;;;;;18.77;10.35;;;;;;;11.34;58.81;99912.66;1741609;82;21020;-60
2023/03/24 05:00:23;;;;;;;17.48;10.38;;;;;;;11.37;59.00;99924.57;1757478;82;21003;-62
2023/03/24 05:02:52;;;;;;;17.67;10.38;;;;;;;11.40;59.01;99932.90;1757521;80;21047;-60
2023/03/24 05:05:23;;;;;;;18.57;9.78;;;;;;;11.42;58.96;99927.51;1756878;80;21047;-61
2023/03/24 05:07:55;;;;;;;18.35;10.20;;;;;;;11.46;59.03;99932.04;1757460;81;21094;-62
2023/03/24 05:10:24;;;;;;;19.85;11.03;;;;;;;11.48;59.04;99931.82;1757166;80;21047;-61
2023/03/24 05:12:57;;;;;;;20.50;10.55;;;;;;;11.52;58.97;99930.33;1757284;81;21015;-61
2023/03/24 05:15:42;;;;;;;20.37;10.95;;;;;;;11.53;58.89;99919.14;1756619;81;21020;-60
2023/03/24 05:18:16;;;;;;;16.85;10.25;;;;;;;11.56;59.10;99931.59;1750290;81;21499;-61
2023/03/24 05:20:45;;;;;;;16.73;9.95;;;;;;;11.58;59.46;99926.20;1757550;82;21020;-62
2023/03/24 05:23:16;;;;;;;19.23;10.28;;;;;;;11.62;59.98;99926.61;1757569;81;20996;-61
2023/03/24 05:25:48;;;;;;;19.45;9.93;;;;;;;11.63;60.39;99908.55;1757952;82;21444;-61
2023/03/24 05:28:17;;;;;;;19.62;10.32;;;;;;;11.64;60.55;99921.22;1761241;81;21016;-61
2023/03/24 05:30:46;;;;;;;23.07;12.13;;;;;;;11.67;60.81;99914.45;1761977;79;20999;-60
2023/03/24 05:33:21;;;;;;;21.95;11.30;;;;;;;11.69;60.83;99923.31;1760179;81;21028;-61
2023/03/24 05:35:51;;;;;;;19.90;10.72;;;;;;;11.70;60.76;99920.88;1760713;82;21438;-60
2023/03/24 05:38:20;;;;;;;21.82;10.68;;;;;;;11.73;60.40;99922.70;1759837;82;21011;-60
2023/03/24 05:40:51;;;;;;;21.60;11.73;;;;;;;11.74;60.30;99923.00;1757024;80;21011;-62
2023/03/24 05:43:19;;;;;;;20.65;11.25;;;;;;;11.80;60.26;99925.97;1744116;82;21036;-60
2023/03/24 05:45:50;;;;;;;32.53;12.45;;;;;;;11.83;60.19;99931.03;1743409;81;21008;-61
2023/03/24 05:48:23;;;;;;;19.82;10.78;;;;;;;11.88;60.04;99933.96;1743529;81;21491;-62
2023/03/24 05:50:55;;;;;;;21.57;11.57;;;;;;;11.92;59.79;99941.55;1743274;81;21009;-62
2023/03/24 05:53:25;;;;;;;19.15;10.95;;;;;;;11.98;59.65;99937.09;1743949;82;21506;-63
2023/03/24 05:56:02;;;;;;;18.02;10.55;;;;;;;12.03;59.54;99927.13;1743357;81;21498;-63
2023/03/24 05:58:34;;;;;;;22.25;11.93;;;;;;;12.10;59.34;99935.34;1742494;82;21060;-62
2023/03/24 06:01:09;;;;;;;27.42;11.25;;;;;;;12.15;59.10;99929.19;1733672;82;21032;-62
2023/03/24 06:03:39;;;;;;;21.55;11.12;;;;;;;12.22;58.86;99933.58;1744045;82;21016;-61
2023/03/24 06:06:15;;;;;;;20.55;11.50;;;;;;;12.28;58.79;99932.70;1743891;81;21035;-62
2023/03/24 06:08:44;;;;;;;20.08;10.98;;;;;;;12.36;58.57;99931.63;1743882;81;21017;-62
2023/03/24 06:11:17;;;;;;;23.67;12.78;;;;;;;12.41;58.38;99933.71;1744026;81;21052;-62
2023/03/24 06:13:51;;;;;;;19.05;11.28;;;;;;;12.49;58.22;99934.82;1743992;81;21059;-63
2023/03/24 06:16:22;;;;;;;23.10;12.30;;;;;;;12.55;58.04;99936.68;1744070;81;21483;-62
2023/03/24 06:18:53;;;;;;;25.00;12.30;;;;;;;12.60;57.78;99936.33;1744056;81;21056;-62
2023/03/24 06:21:29;;;;;;;25.12;12.75;;;;;;;12.65;57.77;99931.53;1742292;82;21004;-62
2023/03/24 06:23:57;;;;;;;22.95;12.33;;;;;;;12.74;57.78;99932.95;1743934;81;21028;-61
2023/03/24 06:26:29;;;;;;;18.57;11.25;;;;;;;12.83;57.46;99934.89;1743877;81;21013;-61
2023/03/24 06:29:00;;;;;;;17.77;11.05;;;;;;;12.89;57.13;99933.45;1743760;82;21107;-61
2023/03/24 06:31:33;;;;;;;19.02;11.50;;;;;;;12.93;57.07;99936.06;1743809;82;21514;-62
2023/03/24 06:34:06;;;;;;;22.25;11.30;;;;;;;12.95;56.96;99939.44;1743969;82;21408;-62
2023/03/24 06:36:35;;;;;;;25.25;10.82;;;;;;;12.98;57.02;99937.61;1743907;82;21012;-61
2023/03/24 06:39:05;;;;;;;17.05;10.68;;;;;;;13.01;57.09;99938.56;1744119;82;21519;-61
2023/03/24 06:41:34;;;;;;;23.80;11.73;;;;;;;13.03;57.15;99932.84;1743995;81;21028;-62
2023/03/24 06:44:05;;;;;;;18.75;11.38;;;;;;;13.06;57.17;99931.55;1743820;81;21020;-61
2023/03/24 06:46:36;;;;;;;21.97;11.75;;;;;;;13.07;57.22;99932.70;1744200;82;21048;-62
2023/03/24 06:49:05;;;;;;;23.50;12.07;;;;;;;13.09;57.32;99928.34;1744001;82;21755;-61
2023/03/24 06:51:34;;;;;;;22.20;11.43;;;;;;;13.11;57.32;99931.17;1744001;82;20984;-63
2023/03/24 06:54:03;;;;;;;22.87;11.93;;;;;;;13.13;57.41;99929.05;1743753;82;21020;-63
2023/03/24 06:56:34;;;;;;;24.02;12.25;;;;;;;13.14;57.48;99932.64;1743955;81;21019;-62
2023/03/24 06:59:03;;;;;;;24.35;11.40;;;;;;;13.17;57.53;99937.19;1744088;82;21448;-61
2023/03/24 07:01:35;;;;;;;22.02;11.60;;;;;;;13.18;57.61;99934.73;1743965;82;21451;-62
2023/03/24 07:04:10;;;;;;;27.07;12.43;;;;;;;13.21;57.64;99937.58;1743214;81;21047;-62
2023/03/24 07:06:46;;;;;;;19.60;10.85;;;;;;;13.24;57.66;99938.49;1743564;81;21036;-62
2023/03/24 07:09:20;;;;;;;23.05;11.15;;;;;;;13.26;57.76;99938.58;1742909;82;21004;-63
2023/03/24 07:11:49;;;;;;;32.20;11.80;;;;;;;13.28;57.75;99935.59;1744142;82;21044;-63
2023/03/24 07:14:20;;;;;;;19.02;10.25;;;;;;;13.29;57.88;99931.78;1744050;82;21036;-62
2023/03/24 07:16:52;;;;;;;20.17;11.00;;;;;;;13.30;57.97;99930.70;1733607;82;21032;-62
2023/03/24 07:19:23;;;;;;;24.07;11.68;;;;;;;13.32;58.04;99934.08;1743462;81;21060;-62
2023/03/24 07:21:54;;;;;;;21.23;10.75;;;;;;;13.36;58.14;99928.96;1743377;81;20992;-61
2023/03/24 07:24:26;;;;;;;22.07;10.98;;;;;;;13.38;58.13;99940.05;1743458;81;21005;-62
2023/03/24 07:26:57;;;;;;;23.60;11.15;;;;;;;13.41;58.21;99938.22;1743426;81;21020;-63
2023/03/24 07:29:26;;;;;;;17.23;10.38;;;;;;;13.44;58.21;99936.92;1744165;82;21032;-62
2023/03/24 07:31:59;;;;;;;22.95;11.05;;;;;;;13.47;58.12;99944.72;1733865;82;22000;-63
2023/03/24 07:34:29;;;;;;;22.75;10.65;;;;;;;13.51;58.10;99941.28;1743819;82;21463;-61
2023/03/24 07:37:05;;;;;;;17.32;10.70;;;;;;;13.52;58.03;99947.09;1733561;82;21063;-62
2023/03/24 07:39:35;;;;;;;;;;;;;;;13.54;58.14;99948.24;1746530;82;21012;-63
2023/03/24 07:42:05;;;;;;;22.87;10.50;;;;;;;13.58;58.11;99946.18;1743829;81;20164;-63
2023/03/24 07:44:36;;;;;;;19.55;10.23;;;;;;;13.60;58.17;99955.05;1743367;81;21440;-62
2023/03/24 07:47:08;;;;;;;22.62;10.72;;;;;;;13.62;58.14;99947.41;1744013;81;21452;-63
2023/03/24 07:49:36;;;;;;;19.30;10.53;;;;;;;13.68;58.07;99946.22;1744013;82;21028;-62
2023/03/24 07:52:08;;;;;;;17.42;10.00;;;;;;;13.70;58.04;99943.54;1743926;82;21031;-62
2023/03/24 07:54:46;;;;;;;25.55;11.48;;;;;;;13.74;58.03;99939.25;1744193;82;21008;-62
2023/03/24 07:57:17;;;;;;;23.77;11.70;;;;;;;13.79;57.91;99942.16;1742717;81;21456;-63
2023/03/24 07:59:46;;;;;;;20.70;11.48;;;;;;;13.84;57.83;99940.94;1744335;81;21028;-62
2023/03/24 08:02:20;;;;;;;28.65;11.93;;;;;;;13.89;57.79;99939.70;1743656;81;21044;-62
2023/03/24 08:04:55;;;;;;;22.50;12.30;;;;;;;13.94;57.73;99930.75;1742707;81;21012;-62
2023/03/24 08:07:29;;;;;;;19.70;10.10;;;;;;;14.02;57.71;99938.70;1743104;81;21059;-62
2023/03/24 08:09:58;;;;;;;22.62;11.50;;;;;;;14.08;57.39;99933.64;1743886;81;21063;-62
2023/03/24 08:12:28;;;;;;;20.62;10.78;;;;;;;14.13;57.33;99929.66;1744228;82;21431;-63
2023/03/24 08:14:57;;;;;;;18.62;11.30;;;;;;;14.19;57.28;99938.36;1744215;81;21044;-63
2023/03/24 08:17:27;;;;;;;19.87;11.45;;;;;;;14.22;56.97;99932.39;1743993;81;21087;-63
2023/03/24 08:19:57;;;;;;;20.43;11.70;;;;;;;14.26;56.93;99928.62;1744070;82;20984;-61
2023/03/24 08:22:27;;;;;;;19.20;11.68;;;;;;;14.28;56.88;99930.08;1743828;81;21047;-62
2023/03/24 08:24:56;;;;;;;21.05;12.18;;;;;;;14.32;56.85;99941.50;1744016;82;21020;-62
2023/03/24 08:27:26;;;;;;;21.33;12.05;;;;;;;14.35;56.75;99942.42;1743986;81;21436;-63
2023/03/24 08:29:58;;;;;;;25.45;11.57;;;;;;;14.36;56.71;99929.48;1743919;82;21024;-61
2023/03/24 08:32:31;;;;;;;20.90;12.07;;;;;;;14.37;56.56;99935.30;1743814;81;21009;-62
2023/03/24 08:35:01;;;;;;;25.92;12.58;;;;;;;14.37;56.58;99927.87;1744078;82;21083;-61
2023/03/24 08:37:31;;;;;;;24.63;12.58;;;;;;;14.38;56.61;99925.95;1744096;82;21468;-61
2023/03/24 08:40:04;;;;;;;22.05;11.75;;;;;;;14.40;56.62;99925.17;1743833;82;21458;-61
2023/03/24 08:42:33;;;;;;;24.98;12.20;;;;;;;14.43;56.55;99927.50;1743780;81;21044;-62
2023/03/24 08:45:04;;;;;;;22.58;11.35;;;;;;;14.44;56.58;99918.99;1743863;82;21494;-62
2023/03/24 08:47:33;;;;;;;20.25;12.18;;;;;;;14.48;56.47;99920.74;1744010;82;21106;-63
2023/03/24 08:50:05;;;;;;;24.25;12.28;;;;;;;14.50;56.26;99919.97;1744068;82;21063;-62
2023/03/24 08:52:35;;;;;;;26.68;13.68;;;;;;;14.52;56.11;99917.28;1743899;81;21027;-62
2023/03/24 08:55:06;;;;;;;22.77;12.30;;;;;;;14.54;56.06;99916.51;1744213;82;21004;-62
2023/03/24 08:57:35;;;;;;;25.05;12.82;;;;;;;14.59;56.07;99921.31;1743922;82;21040;-62
2023/03/24 09:00:11;;;;;;;24.02;12.10;;;;;;;14.66;55.75;99915.16;1746809;81;20980;-63
2023/03/24 09:02:38;;;;;;;23.55;12.58;;;;;;;14.71;55.63;99919.96;1695950;84;21052;-61
2023/03/24 09:05:08;;;;;;;22.10;11.88;;;;;;;14.76;55.46;99922.31;1767023;81;21055;-63
2023/03/24 09:07:38;;;;;;;21.45;12.35;;;;;;;14.81;55.38;99921.60;1706660;84;21009;-63
2023/03/24 09:10:08;;;;;;;24.05;12.40;;;;;;;14.86;55.36;99915.67;1744803;81;21136;-63
2023/03/24 09:12:39;;;;;;;20.60;12.45;;;;;;;14.93;54.92;99919.70;1743928;81;21049;-65
2023/03/24 09:15:10;;;;;;;23.80;12.53;;;;;;;14.99;54.89;99922.91;1744079;82;21041;-64
2023/03/24 09:17:40;;;;;;;21.45;11.95;;;;;;;15.07;54.55;99924.48;1762331;81;21090;-62
2023/03/24 09:20:12;;;;;;;23.27;11.65;;;;;;;15.12;54.56;99921.84;1776579;80;21027;-64
2023/03/24 09:22:44;;;;;;;24.15;11.95;;;;;;;15.21;54.26;99917.66;1709849;84;21641;-65
2023/03/24 09:25:17;;;;;;;21.48;11.38;;;;;;;15.29;53.88;99919.21;1719046;83;21059;-63
2023/03/24 09:27:46;;;;;;;18.92;10.75;;;;;;;15.35;53.75;99916.33;1717351;83;21122;-64
2023/03/24 09:30:17;;;;;;;18.67;11.00;;;;;;;15.40;53.45;99915.06;1716439;83;21067;-64
2023/03/24 09:32:46;;;;;;;19.45;11.25;;;;;;;15.44;53.19;99912.13;1716390;83;21627;-64
2023/03/24 09:35:16;;;;;;;22.30;12.37;;;;;;;15.47;53.25;99913.02;1704724;83;22235;-63
2023/03/24 09:37:47;;;;;;;35.23;18.62;;;;;;;15.53;53.27;99905.14;1701721;84;21084;-63
2023/03/24 09:40:22;;;;;;;24.55;13.90;;;;;;;15.61;52.84;99903.16;1701651;83;21042;-64
2023/03/24 09:43:01;;;;;;;20.52;13.08;;;;;;;15.67;52.69;99906.33;1715395;82;21039;-63
2023/03/24 09:45:32;;;;;;;23.02;12.18;;;;;;;15.73;52.49;99902.59;1751601;82;21074;-64
2023/03/24 09:48:12;;;;;;;19.85;11.55;;;;;;;15.78;52.33;99905.47;1751715;81;21035;-63
2023/03/24 09:50:52;;;;;;;16.48;10.28;;;;;;;15.85;52.15;99902.02;1741339;82;21456;-63
2023/03/24 09:54:03;;;;;;;18.20;10.32;;;;;;;15.92;52.03;99899.95;1752026;82;21018;-64
2023/03/24 09:56:34;;;;;;;19.77;12.50;;;;;;;15.98;51.92;99894.83;1751641;80;21071;-64
2023/03/24 09:59:17;;;;;;;17.92;10.70;;;;;;;16.06;51.73;99887.53;1752425;80;21012;-65
2023/03/24 10:01:46;;;;;;;18.20;10.72;;;;;;;16.13;51.26;99890.98;1751698;80;21065;-64
2023/03/24 10:04:23;;;;;;;18.77;10.95;;;;;;;16.20;51.30;99888.63;1751447;82;21022;-64
2023/03/24 10:07:19;;;;;;;17.25;9.85;;;;;;;16.27;51.38;99896.25;1751834;82;21031;-66
2023/03/24 10:09:56;;;;;;;20.62;10.65;;;;;;;16.35;50.90;99891.16;1697189;80;21122;-64
2023/03/24 10:12:44;;;;;;;18.92;10.90;;;;;;;16.43;50.71;99887.16;1780455;80;21458;-62
2023/03/24 10:15:28;;;;;;;18.60;11.33;;;;;;;16.52;50.54;99892.58;1714380;83;21098;-63
2023/03/24 10:18:13;;;;;;;19.40;11.57;;;;;;;16.60;50.45;99889.40;1780900;80;20992;-63
2023/03/24 10:21:21;;;;;;;15.98;10.00;;;;;;;16.68;50.02;99880.72;1714017;83;21000;-63
2023/03/24 10:24:24;;;;;;;17.87;10.55;;;;;;;16.74;49.71;99885.25;1781057;80;21024;-63
2023/03/24 10:27:18;;;;;;;18.32;11.73;;;;;;;16.83;49.75;99875.98;1780877;80;21424;-64
2023/03/24 10:29:47;;;;;;;18.67;10.45;;;;;;;16.93;49.40;99870.66;1685977;84;21055;-60
2023/03/24 10:32:26;;;;;;;16.85;10.38;;;;;;;17.04;49.21;99871.65;1780865;80;21100;-63
2023/03/24 10:34:58;;;;;;;15.85;9.73;;;;;;;17.12;48.96;99862.91;1780672;80;21023;-61
2023/03/24 10:37:28;;;;;;;17.95;9.38;;;;;;;17.21;48.57;99861.39;1780926;80;21019;-61
2023/03/24 10:39:58;;;;;;;17.27;9.58;;;;;;;17.30;48.34;99862.63;1714147;84;21055;-61
2023/03/24 10:42:32;;;;;;;21.33;10.72;;;;;;;17.38;47.95;99864.13;1779334;80;21161;-62
2023/03/24 10:45:01;;;;;;;19.00;10.58;;;;;;;17.44;47.77;99852.86;1772461;81;21020;-62
2023/03/24 10:47:31;;;;;;;17.67;10.18;;;;;;;17.51;47.43;99852.67;1686401;84;21104;-62
2023/03/24 10:50:06;;;;;;;17.52;9.78;;;;;;;17.57;47.35;99851.67;1751575;80;21498;-63
2023/03/24 10:52:40;;;;;;;19.82;11.65;;;;;;;17.61;47.15;99852.00;1771219;81;21013;-64
2023/03/24 10:55:17;;;;;;;31.17;14.65;;;;;;;17.62;47.11;99842.05;1706473;84;21064;-63
2023/03/24 10:57:50;;;;;;;31.62;14.75;;;;;;;17.66;46.94;99845.14;1772915;81;21020;-64
2023/03/24 11:00:30;;;;;;;20.32;11.18;;;;;;;17.71;47.12;99842.47;1772438;80;21044;-63
2023/03/24 11:03:09;;;;;;;26.70;13.93;;;;;;;17.81;46.94;99836.20;1706499;84;21048;-60
2023/03/24 11:05:39;;;;;;;23.27;11.53;;;;;;;17.90;46.92;99830.50;1762473;81;21012;-63
2023/03/24 11:08:27;;;;;;;20.62;12.47;;;;;;;17.96;46.81;99830.30;1751598;81;21000;-62
2023/03/24 11:10:57;;;;;;;22.42;12.90;;;;;;;18.01;46.73;99820.64;1774075;80;21040;-62
2023/03/24 11:13:32;;;;;;;19.27;10.53;;;;;;;18.08;46.19;99827.38;1774210;81;21107;-62
2023/03/24 11:16:11;;;;;;;17.98;8.88;;;;;;;18.14;45.69;99820.78;1774339;81;20997;-62
2023/03/24 11:18:59;;;;;;;17.27;9.00;;;;;;;18.19;45.30;99818.61;1774220;81;21056;-65
2023/03/24 11:21:31;;;;;;;14.25;8.23;;;;;;;18.24;44.90;99829.23;1774298;81;21048;-64
2023/03/24 11:24:02;;;;;;;12.88;8.03;;;;;;;18.25;44.82;99823.97;1774230;81;21023;-63
2023/03/24 11:26:34;;;;;;;16.07;7.55;;;;;;;18.27;44.80;99825.09;1774409;81;21031;-63
2023/03/24 11:29:14;;;;;;;13.43;7.75;;;;;;;18.26;44.80;99825.65;1730454;83;21061;-63
2023/03/24 11:31:57;;;;;;;13.65;7.50;;;;;;;18.26;44.66;99820.65;1728667;83;21522;-63
2023/03/24 11:34:37;;;;;;;12.33;7.55;;;;;;;18.28;45.03;99819.84;1730470;82;21055;-61
2023/03/24 11:37:15;;;;;;;18.35;8.25;;;;;;;18.32;45.26;99819.60;1730516;83;21064;-63
2023/03/24 11:39:44;;;;;;;13.32;7.55;;;;;;;18.35;44.81;99803.82;1730681;83;21428;-62
2023/03/24 11:42:17;;;;;;;13.08;8.05;;;;;;;18.35;44.69;99809.37;1707073;83;21140;-62
2023/03/24 11:44:50;;;;;;;15.03;9.75;;;;;;;18.34;44.79;99800.76;1660602;85;21124;-63
2023/03/24 11:47:39;;;;;;;19.45;10.08;;;;;;;18.36;44.87;99800.78;1736234;82;20992;-63
2023/03/24 11:50:19;;;;;;;13.15;7.58;;;;;;;18.37;45.05;99801.62;1715509;82;21063;-62
2023/03/24 11:53:17;;;;;;;14.13;7.58;;;;;;;18.40;44.87;99798.31;1742815;80;21079;-62
2023/03/24 11:56:06;;;;;;;12.43;7.78;;;;;;;18.42;44.71;99796.12;1788231;80;21436;-63
2023/03/24 11:58:43;;;;;;;14.40;7.40;;;;;;;18.45;44.65;99794.75;1788275;80;21004;-62